Terminal Aerodrome Forecast
Issued by NWS Memphis, TN

Current Version | Previous Version | Text Only | Print | Product List | Glossary On
Versions: 1 2 3 4 5 6 7 8 9 10 11 12 13 14 15 16 17 18 19 20 21 22 23 24 25 26 27 28 29 30 31 32 33 34 35 36
000
FTUS44 KMEG 021243 AAA
TAFMEM
TAF AMD
KMEM 021243Z 0213/0312 34003KT 3SM BR BKN006 OVC020
     FM021400 33005KT P6SM FEW008 BKN025
     FM021800 34006KT P6SM OVC050
     FM022100 36004KT P6SM SKC=

USA.gov is the U.S. government's official web portal to all federal, state and local government web resources and services.